Time;durP1;ratioP1;P1;durP2;ratioP2;P2;SDS_P1;SDS_P2;PMS_P1;PMS_P2;Temp;Humidity;BMP_temperature;BMP_pressure;BME280_temperature;BME280_humidity;BME280_pressure;Samples;Min_cycle;Max_cycle;Signal;HPM_P1;HPM_P2
2023/01/25 00:00:48;;;;;;;22.25;10.57;;;;;;;;;;4997323;28;20023;-82
2023/01/25 00:03:14;;;;;;;27.45;13.00;;;;;;;;;;4995614;28;20033;-81
2023/01/25 00:05:40;;;;;;;27.20;11.80;;;;;;;;;;4999498;28;20042;-83
2023/01/25 00:08:06;;;;;;;28.88;13.93;;;;;;;;;;4982664;28;20023;-78
2023/01/25 00:10:32;;;;;;;23.20;11.50;;;;;;;;;;4978327;28;20077;-80
2023/01/25 00:12:58;;;;;;;33.30;11.07;;;;;;;;;;4997560;28;20029;-79
2023/01/25 00:15:24;;;;;;;25.92;10.43;;;;;;;;;;4978440;28;20042;-76
2023/01/25 00:17:50;;;;;;;23.48;11.60;;;;;;;;;;4982976;28;20447;-80
2023/01/25 00:20:16;;;;;;;28.88;13.70;;;;;;;;;;4977082;28;20252;-79
2023/01/25 00:22:42;;;;;;;23.73;11.02;;;;;;;;;;4979744;28;20054;-80
2023/01/25 00:25:09;;;;;;;31.23;12.27;;;;;;;;;;4971064;28;20038;-80
2023/01/25 00:27:35;;;;;;;30.00;12.05;;;;;;;;;;4974179;28;20323;-79
2023/01/25 00:30:01;;;;;;;32.28;11.55;;;;;;;;;;4979388;28;20022;-75
2023/01/25 00:32:28;;;;;;;37.90;11.85;;;;;;;;;;4978199;28;20034;-74
2023/01/25 00:34:55;;;;;;;31.33;12.50;;;;;;;;;;4968502;28;20047;-74
2023/01/25 00:37:24;;;;;;;29.73;13.85;;;;;;;;;;4957996;29;20023;-74
2023/01/25 00:39:50;;;;;;;29.52;11.45;;;;;;;;;;4959615;29;20075;-81
2023/01/25 00:42:18;;;;;;;31.67;14.13;;;;;;;;;;4955821;28;20472;-79
2023/01/25 00:44:44;;;;;;;35.95;13.65;;;;;;;;;;4962042;29;20090;-80
2023/01/25 00:47:11;;;;;;;31.95;12.30;;;;;;;;;;4960778;29;20357;-79
2023/01/25 00:49:38;;;;;;;32.47;13.90;;;;;;;;;;4964824;29;20042;-81
2023/01/25 00:52:04;;;;;;;29.42;12.75;;;;;;;;;;4962407;29;20027;-80
2023/01/25 00:54:30;;;;;;;29.23;12.98;;;;;;;;;;4958068;29;20122;-80
2023/01/25 00:56:56;;;;;;;29.80;13.63;;;;;;;;;;4965756;29;20047;-79
2023/01/25 00:59:23;;;;;;;33.60;13.15;;;;;;;;;;4962759;29;20027;-81
2023/01/25 01:01:49;;;;;;;31.42;13.68;;;;;;;;;;4959258;29;20109;-79
2023/01/25 01:04:16;;;;;;;33.50;14.07;;;;;;;;;;4956493;29;20027;-78
2023/01/25 01:06:42;;;;;;;30.85;13.35;;;;;;;;;;4961428;29;20031;-78
2023/01/25 01:09:11;;;;;;;38.40;14.48;;;;;;;;;;4962809;29;20331;-76
2023/01/25 01:11:37;;;;;;;35.30;14.38;;;;;;;;;;4961373;29;20256;-76
2023/01/25 01:14:03;;;;;;;25.33;10.15;;;;;;;;;;4962628;29;20050;-77
2023/01/25 01:16:29;;;;;;;25.88;10.50;;;;;;;;;;4960803;29;20043;-76
2023/01/25 01:18:55;;;;;;;27.55;13.02;;;;;;;;;;4957070;29;20512;-76
2023/01/25 01:21:21;;;;;;;32.65;14.77;;;;;;;;;;4962866;29;20086;-76
2023/01/25 01:23:47;;;;;;;29.10;12.63;;;;;;;;;;4964655;29;20015;-77
2023/01/25 01:26:14;;;;;;;34.13;16.23;;;;;;;;;;4964793;29;20130;-78
2023/01/25 01:28:41;;;;;;;29.95;13.02;;;;;;;;;;4963498;29;20026;-79
2023/01/25 01:31:27;;;;;;;30.58;14.68;;;;;;;;;;4979408;28;20296;-78
2023/01/25 01:33:55;;;;;;;30.52;12.00;;;;;;;;;;4995925;28;20050;-79
2023/01/25 01:36:22;;;;;;;32.45;13.15;;;;;;;;;;4981641;28;20219;-79
2023/01/25 01:38:48;;;;;;;33.63;13.20;;;;;;;;;;4980227;28;20026;-78
2023/01/25 01:41:15;;;;;;;26.48;12.77;;;;;;;;;;4979464;28;20346;-78
2023/01/25 01:43:41;;;;;;;23.77;11.50;;;;;;;;;;4977129;28;20333;-77
2023/01/25 01:46:10;;;;;;;25.30;12.80;;;;;;;;;;4983334;28;20287;-79
2023/01/25 01:48:45;;;;;;;24.70;11.30;;;;;;;;;;4980466;28;20038;-80
2023/01/25 01:51:14;;;;;;;25.77;11.30;;;;;;;;;;4980255;28;20045;-79
2023/01/25 01:53:43;;;;;;;33.10;13.60;;;;;;;;;;4976687;28;20413;-79
2023/01/25 01:56:12;;;;;;;34.40;14.43;;;;;;;;;;4981283;28;20121;-79
2023/01/25 01:58:39;;;;;;;28.45;13.77;;;;;;;;;;4979843;28;20524;-79
2023/01/25 02:01:05;;;;;;;31.67;12.20;;;;;;;;;;4978258;28;20030;-80
2023/01/25 02:03:32;;;;;;;35.15;14.73;;;;;;;;;;4976399;28;20026;-80
2023/01/25 02:06:12;;;;;;;29.67;10.57;;;;;;;;;;4979143;28;20207;-78
2023/01/25 02:08:39;;;;;;;28.00;13.27;;;;;;;;;;4983187;28;20039;-78
2023/01/25 02:11:07;;;;;;;32.72;16.13;;;;;;;;;;4977649;28;20369;-79
2023/01/25 02:13:34;;;;;;;30.85;13.48;;;;;;;;;;4978969;28;20019;-79
2023/01/25 02:16:01;;;;;;;35.78;14.25;;;;;;;;;;4978362;28;20046;-79
2023/01/25 02:18:27;;;;;;;30.80;14.65;;;;;;;;;;4978085;28;20037;-80
2023/01/25 02:20:54;;;;;;;36.67;16.20;;;;;;;;;;4978658;28;20041;-77
2023/01/25 02:23:24;;;;;;;44.65;16.63;;;;;;;;;;4983329;28;20091;-75
2023/01/25 02:25:50;;;;;;;36.22;16.67;;;;;;;;;;4978029;28;20027;-76
2023/01/25 02:28:20;;;;;;;35.00;14.90;;;;;;;;;;4982923;28;20027;-79
2023/01/25 02:30:46;;;;;;;25.35;12.45;;;;;;;;;;4994238;28;20070;-79
2023/01/25 02:33:12;;;;;;;35.92;15.35;;;;;;;;;;4982330;28;20219;-79
2023/01/25 02:35:45;;;;;;;32.92;13.82;;;;;;;;;;4983220;28;20065;-78
2023/01/25 02:38:13;;;;;;;31.73;12.60;;;;;;;;;;4983161;28;20037;-79
2023/01/25 02:40:59;;;;;;;35.58;14.07;;;;;;;;;;4977113;28;20121;-79
2023/01/25 02:43:28;;;;;;;34.75;14.65;;;;;;;;;;4973556;28;20074;-78
2023/01/25 02:45:58;;;;;;;34.75;14.15;;;;;;;;;;4975279;28;20058;-79
2023/01/25 02:48:23;;;;;;;;;;;;;;;;;;4974350;28;20022;-79
2023/01/25 02:50:49;;;;;;;34.90;14.60;;;;;;;;;;4973954;28;20309;-79
2023/01/25 02:53:15;;;;;;;28.70;13.30;;;;;;;;;;4973617;28;20105;-79
2023/01/25 02:55:41;;;;;;;33.15;13.15;;;;;;;;;;4974433;28;20035;-77
2023/01/25 02:58:07;;;;;;;31.02;12.02;;;;;;;;;;4978254;28;20110;-77
2023/01/25 03:00:33;;;;;;;29.95;14.35;;;;;;;;;;4994691;28;20327;-76
2023/01/25 03:02:59;;;;;;;30.15;10.52;;;;;;;;;;4980962;28;20022;-76
2023/01/25 03:05:25;;;;;;;34.08;14.73;;;;;;;;;;4994082;28;20439;-76
2023/01/25 03:07:52;;;;;;;30.88;13.93;;;;;;;;;;4994472;28;20171;-75
2023/01/25 03:10:18;;;;;;;35.20;17.17;;;;;;;;;;4992568;28;20039;-75
2023/01/25 03:12:46;;;;;;;29.63;14.40;;;;;;;;;;4995278;28;20054;-76
2023/01/25 03:15:12;;;;;;;38.20;14.95;;;;;;;;;;4997118;28;20034;-81
2023/01/25 03:17:38;;;;;;;32.20;14.27;;;;;;;;;;4981958;28;20114;-80
2023/01/25 03:20:05;;;;;;;28.95;12.77;;;;;;;;;;4994607;28;20142;-78
2023/01/25 03:22:31;;;;;;;34.35;15.88;;;;;;;;;;4980709;28;20035;-79
2023/01/25 03:24:57;;;;;;;31.15;13.98;;;;;;;;;;4992492;28;20076;-78
2023/01/25 03:27:23;;;;;;;26.83;13.77;;;;;;;;;;4973212;28;20098;-76
2023/01/25 03:29:49;;;;;;;29.67;13.05;;;;;;;;;;4972404;28;20102;-76
2023/01/25 03:32:15;;;;;;;31.30;13.25;;;;;;;;;;4972791;28;20361;-78
2023/01/25 03:34:41;;;;;;;38.45;12.38;;;;;;;;;;4975582;28;20038;-78
2023/01/25 03:37:07;;;;;;;33.65;12.68;;;;;;;;;;4978960;28;20054;-77
2023/01/25 03:39:33;;;;;;;39.00;13.88;;;;;;;;;;4981896;28;20019;-78
2023/01/25 03:41:59;;;;;;;28.40;11.23;;;;;;;;;;4981177;28;20073;-79
2023/01/25 03:44:25;;;;;;;40.28;17.45;;;;;;;;;;4991455;28;20027;-77
2023/01/25 03:46:51;;;;;;;31.25;13.18;;;;;;;;;;4978476;28;20030;-76
2023/01/25 03:49:17;;;;;;;30.20;13.85;;;;;;;;;;4978204;28;20047;-80
2023/01/25 03:51:43;;;;;;;33.70;14.52;;;;;;;;;;4997023;28;20374;-79
2023/01/25 03:54:09;;;;;;;40.42;15.55;;;;;;;;;;4978416;28;20062;-78
2023/01/25 03:56:36;;;;;;;30.90;13.38;;;;;;;;;;4978061;28;20030;-79
2023/01/25 03:59:02;;;;;;;38.72;15.70;;;;;;;;;;4981791;28;20123;-77
2023/01/25 04:01:28;;;;;;;30.27;13.50;;;;;;;;;;4992381;28;20050;-75
2023/01/25 04:03:54;;;;;;;31.15;16.35;;;;;;;;;;4973754;28;20023;-77
2023/01/25 04:06:20;;;;;;;37.25;15.48;;;;;;;;;;4996237;28;20259;-76
2023/01/25 04:08:46;;;;;;;26.67;13.30;;;;;;;;;;4994012;28;20045;-75
2023/01/25 04:11:12;;;;;;;39.50;16.17;;;;;;;;;;4979776;28;20034;-75
2023/01/25 04:13:39;;;;;;;36.28;14.35;;;;;;;;;;4978555;28;20046;-77
2023/01/25 04:16:06;;;;;;;39.92;15.00;;;;;;;;;;4980480;28;20123;-78
2023/01/25 04:18:32;;;;;;;30.70;15.30;;;;;;;;;;4981021;28;20046;-76
2023/01/25 04:20:58;;;;;;;35.42;16.02;;;;;;;;;;4978252;28;20057;-77
2023/01/25 04:23:25;;;;;;;42.88;15.27;;;;;;;;;;4987146;28;20027;-76
2023/01/25 04:25:52;;;;;;;32.30;15.27;;;;;;;;;;4977204;28;20073;-75
2023/01/25 04:28:18;;;;;;;36.63;14.98;;;;;;;;;;4972322;28;20456;-75
2023/01/25 04:30:45;;;;;;;45.25;17.95;;;;;;;;;;4971291;28;20062;-78
2023/01/25 04:33:11;;;;;;;37.28;15.18;;;;;;;;;;4977321;28;20224;-77
2023/01/25 04:35:37;;;;;;;30.83;15.95;;;;;;;;;;4973105;28;20172;-78
2023/01/25 04:38:03;;;;;;;39.72;13.63;;;;;;;;;;4971479;28;20053;-77
2023/01/25 04:40:30;;;;;;;36.95;15.73;;;;;;;;;;4978086;28;20038;-78
2023/01/25 04:42:56;;;;;;;50.88;16.55;;;;;;;;;;4990516;28;20218;-78
2023/01/25 04:45:23;;;;;;;46.60;14.50;;;;;;;;;;4975291;28;20033;-78
2023/01/25 04:47:49;;;;;;;43.20;17.67;;;;;;;;;;4972710;28;20026;-78
2023/01/25 04:50:15;;;;;;;37.95;15.60;;;;;;;;;;4971272;28;20270;-78
2023/01/25 04:52:41;;;;;;;29.85;15.95;;;;;;;;;;4969794;28;20078;-76
2023/01/25 04:55:08;;;;;;;42.72;16.60;;;;;;;;;;4971449;28;20703;-77
2023/01/25 04:57:34;;;;;;;47.30;17.13;;;;;;;;;;4971070;28;20484;-76
2023/01/25 05:00:00;;;;;;;38.03;16.30;;;;;;;;;;4986169;28;20130;-77
2023/01/25 05:02:26;;;;;;;41.58;16.38;;;;;;;;;;4985529;28;20113;-75
2023/01/25 05:04:52;;;;;;;39.08;15.55;;;;;;;;;;4971348;28;20050;-77
2023/01/25 05:07:18;;;;;;;42.85;15.20;;;;;;;;;;4971128;28;20102;-77
2023/01/25 05:09:47;;;;;;;40.80;15.70;;;;;;;;;;4971372;28;20023;-77
2023/01/25 05:12:13;;;;;;;42.47;17.83;;;;;;;;;;4971256;28;20391;-78
2023/01/25 05:14:39;;;;;;;40.67;19.60;;;;;;;;;;4971406;28;20050;-77
2023/01/25 05:17:06;;;;;;;43.80;17.13;;;;;;;;;;4971376;28;20258;-78
2023/01/25 05:19:32;;;;;;;41.63;17.40;;;;;;;;;;4970886;28;20104;-78
2023/01/25 05:21:58;;;;;;;37.25;16.98;;;;;;;;;;4971303;28;20031;-77
2023/01/25 05:24:25;;;;;;;44.58;16.27;;;;;;;;;;4971199;28;20023;-77
2023/01/25 05:27:02;;;;;;;45.40;16.88;;;;;;;;;;4970822;28;20034;-75
2023/01/25 05:29:35;;;;;;;35.92;17.88;;;;;;;;;;4974555;28;20492;-77
2023/01/25 05:32:05;;;;;;;46.03;16.52;;;;;;;;;;4975627;28;20323;-77
2023/01/25 05:34:32;;;;;;;51.30;18.63;;;;;;;;;;4976526;28;20090;-77
2023/01/25 05:36:58;;;;;;;49.00;19.52;;;;;;;;;;4974655;28;20043;-78
2023/01/25 05:39:24;;;;;;;40.35;16.42;;;;;;;;;;4974430;28;20115;-76
2023/01/25 05:41:50;;;;;;;41.17;18.33;;;;;;;;;;4974390;28;20054;-77
2023/01/25 05:44:16;;;;;;;62.80;20.27;;;;;;;;;;4974319;28;20034;-76
2023/01/25 05:46:42;;;;;;;31.08;13.27;;;;;;;;;;4989086;28;20117;-78
2023/01/25 05:49:09;;;;;;;60.30;20.85;;;;;;;;;;4973900;28;20028;-77
2023/01/25 05:51:35;;;;;;;55.72;21.33;;;;;;;;;;4973964;28;20418;-75
2023/01/25 05:54:01;;;;;;;40.63;17.08;;;;;;;;;;4974246;28;20102;-77
2023/01/25 05:56:27;;;;;;;56.88;22.83;;;;;;;;;;4973945;28;20106;-77
2023/01/25 05:58:57;;;;;;;63.28;23.73;;;;;;;;;;4974312;28;20269;-75
2023/01/25 06:01:24;;;;;;;45.70;19.52;;;;;;;;;;4973925;28;20030;-76
2023/01/25 06:03:50;;;;;;;42.42;15.88;;;;;;;;;;4973682;28;20031;-77
2023/01/25 06:06:16;;;;;;;54.22;22.70;;;;;;;;;;4974183;28;20023;-77
2023/01/25 06:08:42;;;;;;;73.07;24.13;;;;;;;;;;4988648;28;20026;-78
2023/01/25 06:11:09;;;;;;;49.40;17.42;;;;;;;;;;4973726;28;20102;-78
2023/01/25 06:13:35;;;;;;;71.53;23.42;;;;;;;;;;4973764;28;20479;-75
2023/01/25 06:16:01;;;;;;;48.33;20.65;;;;;;;;;;4978283;28;20034;-78
2023/01/25 06:18:29;;;;;;;46.42;18.20;;;;;;;;;;4983385;28;20066;-78
2023/01/25 06:20:58;;;;;;;65.40;19.75;;;;;;;;;;4974482;28;20065;-77
2023/01/25 06:23:24;;;;;;;72.18;24.80;;;;;;;;;;4976313;28;20022;-75
2023/01/25 06:25:50;;;;;;;56.47;19.77;;;;;;;;;;4984198;28;20133;-77
2023/01/25 06:28:16;;;;;;;49.05;20.63;;;;;;;;;;4980757;28;20315;-78
2023/01/25 06:30:42;;;;;;;56.47;21.77;;;;;;;;;;4984255;28;20018;-76
2023/01/25 06:33:08;;;;;;;46.92;18.95;;;;;;;;;;4980672;28;20011;-76
2023/01/25 06:35:34;;;;;;;46.75;21.63;;;;;;;;;;4982129;28;20354;-76
2023/01/25 06:38:00;;;;;;;65.15;21.35;;;;;;;;;;4983646;28;20023;-78
2023/01/25 06:40:27;;;;;;;55.97;20.10;;;;;;;;;;4981461;28;20042;-75
2023/01/25 06:42:53;;;;;;;62.25;25.40;;;;;;;;;;4981575;28;20030;-75
2023/01/25 06:45:19;;;;;;;57.17;20.98;;;;;;;;;;4983849;28;20313;-74
2023/01/25 06:47:47;;;;;;;66.13;23.23;;;;;;;;;;4982659;28;20022;-75
2023/01/25 06:50:16;;;;;;;59.20;18.25;;;;;;;;;;4982972;28;20019;-75
2023/01/25 06:52:42;;;;;;;55.30;20.95;;;;;;;;;;4984364;28;20027;-75
2023/01/25 06:55:12;;;;;;;65.38;23.30;;;;;;;;;;4981299;28;20031;-76
2023/01/25 06:57:38;;;;;;;59.67;23.63;;;;;;;;;;4982795;28;20027;-78
2023/01/25 07:00:05;;;;;;;45.45;19.83;;;;;;;;;;4975047;28;20019;-74
2023/01/25 07:02:31;;;;;;;53.90;19.42;;;;;;;;;;4964409;28;20139;-75
2023/01/25 07:04:57;;;;;;;60.60;22.80;;;;;;;;;;4982613;28;20038;-74
2023/01/25 07:07:23;;;;;;;47.45;22.20;;;;;;;;;;4982532;28;20055;-74
2023/01/25 07:09:49;;;;;;;62.78;19.90;;;;;;;;;;4982743;28;20029;-74
2023/01/25 07:12:19;;;;;;;44.40;18.55;;;;;;;;;;4982343;28;20031;-78
2023/01/25 07:14:48;;;;;;;46.60;18.13;;;;;;;;;;4973795;28;20362;-76
2023/01/25 07:17:14;;;;;;;55.03;18.92;;;;;;;;;;4965018;28;20050;-74
2023/01/25 07:19:41;;;;;;;48.28;19.20;;;;;;;;;;4988389;28;20047;-76
2023/01/25 07:22:07;;;;;;;76.78;21.90;;;;;;;;;;4981852;28;20027;-77
2023/01/25 07:24:33;;;;;;;55.78;20.17;;;;;;;;;;4982247;28;20037;-77
2023/01/25 07:26:59;;;;;;;60.60;23.70;;;;;;;;;;4981835;28;20109;-74
2023/01/25 07:29:25;;;;;;;68.00;21.70;;;;;;;;;;4982270;28;20050;-77
2023/01/25 07:31:51;;;;;;;48.38;16.02;;;;;;;;;;4981262;28;20322;-76
2023/01/25 07:34:17;;;;;;;50.47;21.27;;;;;;;;;;4982089;28;20101;-75
2023/01/25 07:36:43;;;;;;;53.08;21.27;;;;;;;;;;4980992;28;20333;-78
2023/01/25 07:39:10;;;;;;;56.25;22.50;;;;;;;;;;4979888;28;20286;-75
2023/01/25 07:41:36;;;;;;;66.80;25.45;;;;;;;;;;4981709;28;20286;-75
2023/01/25 07:44:03;;;;;;;50.28;19.65;;;;;;;;;;4979432;28;20033;-77
2023/01/25 07:46:29;;;;;;;44.22;17.63;;;;;;;;;;4975726;28;20027;-77
2023/01/25 07:48:57;;;;;;;48.25;17.08;;;;;;;;;;4971593;28;20023;-75
2023/01/25 07:51:26;;;;;;;54.97;21.70;;;;;;;;;;4964869;28;20023;-77
2023/01/25 07:53:53;;;;;;;49.95;21.88;;;;;;;;;;4971545;28;20023;-78
2023/01/25 07:56:21;;;;;;;51.80;18.05;;;;;;;;;;4977146;28;20069;-77
2023/01/25 07:58:47;;;;;;;51.33;22.13;;;;;;;;;;4976880;28;20019;-78
2023/01/25 08:01:17;;;;;;;54.28;20.83;;;;;;;;;;4973588;28;20100;-80
2023/01/25 08:03:44;;;;;;;53.33;18.50;;;;;;;;;;4954319;28;20078;-77
2023/01/25 08:06:10;;;;;;;57.55;22.67;;;;;;;;;;4966874;28;20042;-75
2023/01/25 08:08:37;;;;;;;52.85;20.58;;;;;;;;;;4952909;28;20031;-75
2023/01/25 08:11:08;;;;;;;58.33;20.17;;;;;;;;;;4953610;28;20074;-75
2023/01/25 08:13:34;;;;;;;57.97;20.95;;;;;;;;;;4952737;28;20027;-75
2023/01/25 08:16:00;;;;;;;61.22;20.05;;;;;;;;;;4952627;28;20036;-76
2023/01/25 08:18:26;;;;;;;58.35;21.90;;;;;;;;;;4952026;29;20380;-76
2023/01/25 08:20:52;;;;;;;61.17;21.95;;;;;;;;;;4952852;28;20030;-75
2023/01/25 08:23:19;;;;;;;50.72;19.08;;;;;;;;;;4952233;29;20094;-75
2023/01/25 08:25:48;;;;;;;43.65;17.67;;;;;;;;;;4961190;28;20031;-79
2023/01/25 08:28:17;;;;;;;48.78;20.60;;;;;;;;;;4973256;28;20023;-79
2023/01/25 08:30:43;;;;;;;45.97;19.48;;;;;;;;;;4973085;28;20069;-80
2023/01/25 08:33:09;;;;;;;48.03;19.00;;;;;;;;;;4954267;29;20027;-79
2023/01/25 08:35:36;;;;;;;60.40;19.92;;;;;;;;;;4955006;29;20019;-79
2023/01/25 08:38:02;;;;;;;50.38;19.38;;;;;;;;;;4956198;29;20077;-79
2023/01/25 08:40:28;;;;;;;56.00;18.60;;;;;;;;;;4954855;29;20035;-79
2023/01/25 08:42:54;;;;;;;43.08;19.10;;;;;;;;;;4960172;28;20021;-82
2023/01/25 08:45:20;;;;;;;44.45;18.83;;;;;;;;;;4986979;28;20108;-78
2023/01/25 08:47:46;;;;;;;40.83;17.13;;;;;;;;;;4994091;28;20023;-78
2023/01/25 08:50:13;;;;;;;52.95;20.27;;;;;;;;;;4979170;28;20296;-78
2023/01/25 08:52:39;;;;;;;51.65;19.73;;;;;;;;;;4992005;28;20031;-80
2023/01/25 08:55:05;;;;;;;52.95;20.63;;;;;;;;;;4993022;28;20041;-79
2023/01/25 08:57:31;;;;;;;47.47;20.05;;;;;;;;;;4977890;28;20038;-79
2023/01/25 08:59:57;;;;;;;52.33;19.73;;;;;;;;;;4992981;28;20286;-80
2023/01/25 09:02:23;;;;;;;53.42;19.67;;;;;;;;;;4991570;28;20203;-79
2023/01/25 09:04:49;;;;;;;46.25;20.55;;;;;;;;;;4992177;28;20033;-80
2023/01/25 09:07:15;;;;;;;89.47;32.65;;;;;;;;;;4991266;28;20077;-80
2023/01/25 09:09:41;;;;;;;61.28;24.15;;;;;;;;;;4977320;28;20027;-80
2023/01/25 09:12:09;;;;;;;53.78;18.35;;;;;;;;;;4995952;28;20054;-79
2023/01/25 09:14:36;;;;;;;46.00;17.63;;;;;;;;;;4977878;28;20039;-80
2023/01/25 09:17:02;;;;;;;46.17;20.58;;;;;;;;;;4995792;28;20668;-78
2023/01/25 09:19:28;;;;;;;50.13;17.95;;;;;;;;;;4979664;28;20240;-79
2023/01/25 09:21:54;;;;;;;53.30;18.08;;;;;;;;;;4960301;29;20027;-80
2023/01/25 09:24:20;;;;;;;42.35;17.08;;;;;;;;;;4960267;29;20031;-81
2023/01/25 09:26:46;;;;;;;43.63;17.27;;;;;;;;;;4956593;28;20388;-80
2023/01/25 09:29:12;;;;;;;50.13;18.80;;;;;;;;;;4951165;28;20090;-76
2023/01/25 09:31:39;;;;;;;29.92;14.35;;;;;;;;;;4952836;28;20055;-79
2023/01/25 09:34:05;;;;;;;35.92;15.68;;;;;;;;;;4952233;28;20392;-77
2023/01/25 09:36:31;;;;;;;43.55;17.77;;;;;;;;;;4952760;29;20043;-77
2023/01/25 09:38:57;;;;;;;52.33;16.73;;;;;;;;;;4952466;29;20111;-77
2023/01/25 09:41:29;;;;;;;48.35;20.63;;;;;;;;;;4952410;28;20039;-76
2023/01/25 09:44:08;;;;;;;51.05;17.33;;;;;;;;;;4951267;28;20027;-76
2023/01/25 09:46:41;;;;;;;51.83;19.42;;;;;;;;;;4952703;28;20028;-75
2023/01/25 09:49:07;;;;;;;48.22;19.38;;;;;;;;;;4957630;29;20055;-77
2023/01/25 09:51:53;;;;;;;56.50;16.92;;;;;;;;;;4953926;28;20031;-78
2023/01/25 09:54:19;;;;;;;41.47;18.65;;;;;;;;;;4930762;28;20126;-75
2023/01/25 09:56:48;;;;;;;44.70;16.95;;;;;;;;;;4951725;28;20465;-75
2023/01/25 09:59:19;;;;;;;43.55;17.85;;;;;;;;;;4952573;29;20027;-76
2023/01/25 10:01:45;;;;;;;50.78;16.23;;;;;;;;;;4957476;28;20054;-77
2023/01/25 10:04:17;;;;;;;51.13;17.13;;;;;;;;;;4960524;28;20037;-76
2023/01/25 10:06:44;;;;;;;38.70;17.60;;;;;;;;;;4976246;28;20034;-76
2023/01/25 10:09:22;;;;;;;31.77;15.00;;;;;;;;;;4989829;28;20038;-76
2023/01/25 10:11:48;;;;;;;33.47;13.07;;;;;;;;;;4970688;28;20031;-76
2023/01/25 10:14:16;;;;;;;39.33;14.43;;;;;;;;;;4988752;28;20031;-77
2023/01/25 10:16:45;;;;;;;37.20;16.48;;;;;;;;;;4986033;28;20042;-80
2023/01/25 10:19:17;;;;;;;37.58;16.40;;;;;;;;;;4983931;28;20071;-77
2023/01/25 10:21:45;;;;;;;46.47;17.58;;;;;;;;;;4964504;28;20035;-78
2023/01/25 10:24:29;;;;;;;32.40;15.88;;;;;;;;;;4962247;28;20023;-83
2023/01/25 10:26:56;;;;;;;39.20;16.38;;;;;;;;;;4959781;28;20407;-80
2023/01/25 10:29:27;;;;;;;35.60;15.65;;;;;;;;;;4958687;28;20086;-79
2023/01/25 10:31:54;;;;;;;35.45;16.30;;;;;;;;;;4972536;28;20035;-81
2023/01/25 10:34:22;;;;;;;40.53;17.65;;;;;;;;;;4956071;28;20023;-83
2023/01/25 10:36:56;;;;;;;40.03;15.20;;;;;;;;;;4956353;28;20039;-77
2023/01/25 10:39:22;;;;;;;38.58;14.65;;;;;;;;;;4954178;28;20051;-76
2023/01/25 10:41:59;;;;;;;35.60;15.60;;;;;;;;;;4971184;28;20046;-79
2023/01/25 10:44:25;;;;;;;43.13;17.90;;;;;;;;;;4959533;28;20094;-76
2023/01/25 10:47:06;;;;;;;38.75;17.48;;;;;;;;;;4966250;28;20050;-76
2023/01/25 10:49:41;;;;;;;34.90;16.63;;;;;;;;;;4978000;28;20019;-81
2023/01/25 10:52:21;;;;;;;39.42;16.23;;;;;;;;;;4975436;28;20019;-80
2023/01/25 10:54:51;;;;;;;45.72;15.88;;;;;;;;;;4972508;28;20047;-85
2023/01/25 10:57:18;;;;;;;30.75;12.75;;;;;;;;;;4974364;28;20074;-77
2023/01/25 10:59:46;;;;;;;34.92;15.35;;;;;;;;;;4973466;28;20026;-74
2023/01/25 11:02:36;;;;;;;35.42;14.70;;;;;;;;;;4971715;28;20034;-82
2023/01/25 11:05:21;;;;;;;34.35;16.83;;;;;;;;;;4969207;28;20039;-79
2023/01/25 11:07:47;;;;;;;32.53;14.13;;;;;;;;;;4950860;29;20037;-82
2023/01/25 11:10:28;;;;;;;36.50;12.90;;;;;;;;;;4968846;28;20023;-82
2023/01/25 11:13:27;;;;;;;44.20;16.80;;;;;;;;;;4980780;28;20033;-76
2023/01/25 11:16:00;;;;;;;55.50;20.05;;;;;;;;;;4942525;28;20039;-78
2023/01/25 11:18:27;;;;;;;39.42;16.55;;;;;;;;;;4956464;28;20213;-75
2023/01/25 11:21:04;;;;;;;34.83;15.10;;;;;;;;;;4964821;28;20306;-83
2023/01/25 11:23:31;;;;;;;38.15;15.80;;;;;;;;;;4971832;28;20074;-77
2023/01/25 11:26:11;;;;;;;31.50;13.40;;;;;;;;;;4962469;28;20026;-77
2023/01/25 11:28:37;;;;;;;31.50;13.68;;;;;;;;;;4965573;28;20061;-84
2023/01/25 11:31:03;;;;;;;36.35;13.27;;;;;;;;;;4967853;28;20035;-83
2023/01/25 11:33:31;;;;;;;35.40;13.85;;;;;;;;;;4968585;28;20026;-83
2023/01/25 11:36:03;;;;;;;39.75;16.10;;;;;;;;;;4977659;28;20113;-84
2023/01/25 11:38:29;;;;;;;29.27;9.65;;;;;;;;;;4981328;28;20346;-82
2023/01/25 11:41:18;;;;;;;40.63;15.32;;;;;;;;;;4971752;28;20023;-76
2023/01/25 11:43:45;;;;;;;36.65;14.32;;;;;;;;;;4962471;28;20319;-77
2023/01/25 11:46:31;;;;;;;36.67;15.75;;;;;;;;;;4959429;28;20070;-82
2023/01/25 11:48:57;;;;;;;36.20;15.38;;;;;;;;;;4968277;28;20069;-83
2023/01/25 11:51:39;;;;;;;32.40;12.77;;;;;;;;;;4981331;28;20050;-83
2023/01/25 11:54:12;;;;;;;34.92;15.90;;;;;;;;;;4971623;28;20050;-79
2023/01/25 11:56:46;;;;;;;31.83;12.55;;;;;;;;;;4969870;28;20166;-74
2023/01/25 11:59:29;;;;;;;30.92;11.15;;;;;;;;;;4971118;28;20029;-86
2023/01/25 12:02:05;;;;;;;32.47;13.75;;;;;;;;;;4970126;28;20030;-81
2023/01/25 12:04:31;;;;;;;35.10;15.35;;;;;;;;;;4970834;28;20031;-84
2023/01/25 12:07:24;;;;;;;35.92;14.70;;;;;;;;;;4975612;28;20081;-80
2023/01/25 12:09:56;;;;;;;35.28;12.30;;;;;;;;;;4973390;28;20172;-84
2023/01/25 12:12:40;;;;;;;33.95;13.02;;;;;;;;;;4969796;28;20113;-75
2023/01/25 12:15:38;;;;;;;30.85;11.13;;;;;;;;;;4950045;28;20147;-81
2023/01/25 12:18:13;;;;;;;38.95;13.85;;;;;;;;;;4927074;29;20495;-83
2023/01/25 12:20:48;;;;;;;27.35;12.35;;;;;;;;;;4959865;28;20349;-85
2023/01/25 12:23:33;;;;;;;48.50;20.98;;;;;;;;;;4972277;28;20022;-84
2023/01/25 12:26:02;;;;;;;25.08;12.25;;;;;;;;;;4968660;28;20034;-75
2023/01/25 12:28:32;;;;;;;30.65;12.98;;;;;;;;;;4969813;28;20109;-78
2023/01/25 12:31:04;;;;;;;28.73;12.50;;;;;;;;;;4969904;28;20480;-75
2023/01/25 12:33:36;;;;;;;27.15;10.82;;;;;;;;;;4980015;28;20026;-77
2023/01/25 12:36:40;;;;;;;27.67;11.35;;;;;;;;;;4979827;28;20077;-79
2023/01/25 12:39:12;;;;;;;32.95;10.65;;;;;;;;;;4921668;29;20069;-75
2023/01/25 12:41:49;;;;;;;28.58;12.25;;;;;;;;;;4939415;29;20032;-77
2023/01/25 12:44:15;;;;;;;25.48;12.38;;;;;;;;;;4958504;28;20258;-80
2023/01/25 12:46:44;;;;;;;23.33;11.50;;;;;;;;;;4974061;28;20030;-85
2023/01/25 12:49:30;;;;;;;29.55;11.55;;;;;;;;;;4972715;28;20033;-85
2023/01/25 12:51:58;;;;;;;28.80;12.85;;;;;;;;;;4970907;28;20038;-80
2023/01/25 12:54:29;;;;;;;23.92;10.80;;;;;;;;;;4969716;28;20027;-85
2023/01/25 12:56:57;;;;;;;27.67;11.30;;;;;;;;;;4950448;28;20403;-80
2023/01/25 12:59:29;;;;;;;18.95;10.90;;;;;;;;;;4956215;28;20032;-76
2023/01/25 13:02:02;;;;;;;23.13;10.50;;;;;;;;;;4966856;28;20370;-77
2023/01/25 13:04:31;;;;;;;25.77;10.88;;;;;;;;;;4954690;28;20306;-77
2023/01/25 13:07:10;;;;;;;23.30;11.05;;;;;;;;;;4954387;28;20027;-81
2023/01/25 13:09:42;;;;;;;23.45;9.80;;;;;;;;;;4951397;28;20050;-80
2023/01/25 13:12:10;;;;;;;22.98;10.45;;;;;;;;;;4949581;28;20158;-77
2023/01/25 13:14:37;;;;;;;17.60;9.05;;;;;;;;;;4950092;28;20020;-76
2023/01/25 13:17:10;;;;;;;26.35;9.90;;;;;;;;;;4948707;28;20620;-76
2023/01/25 13:19:36;;;;;;;24.85;10.27;;;;;;;;;;4950201;28;20044;-79
2023/01/25 13:22:02;;;;;;;24.45;10.40;;;;;;;;;;4964979;28;20027;-79
2023/01/25 13:24:30;;;;;;;28.30;9.18;;;;;;;;;;4950320;28;20031;-75
2023/01/25 13:26:56;;;;;;;23.38;10.15;;;;;;;;;;4949893;28;20135;-76
2023/01/25 13:29:30;;;;;;;23.92;11.43;;;;;;;;;;4964680;28;20113;-77
2023/01/25 13:31:57;;;;;;;24.27;10.80;;;;;;;;;;4950145;28;20027;-75
2023/01/25 13:34:37;;;;;;;24.88;11.80;;;;;;;;;;4949912;28;20106;-81
2023/01/25 13:37:15;;;;;;;29.48;10.63;;;;;;;;;;4964632;28;20133;-80
2023/01/25 13:39:46;;;;;;;28.05;11.38;;;;;;;;;;4964957;28;20432;-74
2023/01/25 13:42:12;;;;;;;27.05;10.85;;;;;;;;;;4950031;28;20468;-78
2023/01/25 13:44:42;;;;;;;29.33;10.98;;;;;;;;;;4950267;28;20071;-77
2023/01/25 13:47:12;;;;;;;31.92;10.32;;;;;;;;;;4951340;28;20051;-77
2023/01/25 13:49:48;;;;;;;29.05;12.25;;;;;;;;;;4951938;28;20027;-76
2023/01/25 13:52:18;;;;;;;24.73;11.40;;;;;;;;;;4969612;28;20031;-75
2023/01/25 13:54:48;;;;;;;24.17;10.60;;;;;;;;;;4954445;28;20500;-75
2023/01/25 13:57:21;;;;;;;27.23;12.90;;;;;;;;;;4969228;28;20507;-75
2023/01/25 13:59:47;;;;;;;31.75;11.95;;;;;;;;;;4969472;28;20020;-77
2023/01/25 14:02:21;;;;;;;29.42;13.10;;;;;;;;;;4969064;28;20086;-77
2023/01/25 14:04:48;;;;;;;30.50;11.63;;;;;;;;;;4954718;28;20512;-76
2023/01/25 14:07:16;;;;;;;28.90;10.32;;;;;;;;;;4954795;28;20055;-77
2023/01/25 14:09:42;;;;;;;29.17;10.73;;;;;;;;;;4954503;28;20528;-77
2023/01/25 14:12:10;;;;;;;22.73;10.88;;;;;;;;;;4954615;28;20436;-77
2023/01/25 14:14:36;;;;;;;23.52;11.77;;;;;;;;;;4954675;28;20090;-78
2023/01/25 14:17:08;;;;;;;27.75;10.13;;;;;;;;;;4954578;28;20478;-79
2023/01/25 14:19:43;;;;;;;37.63;11.82;;;;;;;;;;4968967;28;20124;-77
2023/01/25 14:22:12;;;;;;;26.67;11.05;;;;;;;;;;4954552;28;20030;-75
2023/01/25 14:24:39;;;;;;;24.77;10.93;;;;;;;;;;4954176;28;20035;-77
2023/01/25 14:27:05;;;;;;;25.00;11.13;;;;;;;;;;4954455;28;20031;-76